sensor_id;sensor_type;location;lat;lon;timestamp;P1;P2;P0
72307;PMS5003;60257;42.638;23.376;2022-08-19T00:00:18;26.00;24.75;17.00
72307;PMS5003;60257;42.638;23.376;2022-08-19T00:02:44;20.00;20.00;15.75
72307;PMS5003;60257;42.638;23.376;2022-08-19T00:05:10;24.25;23.75;17.50
72307;PMS5003;60257;42.638;23.376;2022-08-19T00:07:37;21.75;21.75;13.25
72307;PMS5003;60257;42.638;23.376;2022-08-19T00:10:04;21.75;21.00;14.75
72307;PMS5003;60257;42.638;23.376;2022-08-19T00:12:31;24.00;24.00;17.75
72307;PMS5003;60257;42.638;23.376;2022-08-19T00:14:56;27.00;23.50;15.50
72307;PMS5003;60257;42.638;23.376;2022-08-19T00:17:22;26.00;25.00;18.75
72307;PMS5003;60257;42.638;23.376;2022-08-19T00:19:47;25.25;25.25;18.25
72307;PMS5003;60257;42.638;23.376;2022-08-19T00:22:13;23.75;23.75;16.75
72307;PMS5003;60257;42.638;23.376;2022-08-19T00:24:39;26.50;25.25;17.50
72307;PMS5003;60257;42.638;23.376;2022-08-19T00:27:06;24.75;24.25;16.00
72307;PMS5003;60257;42.638;23.376;2022-08-19T00:29:31;22.25;22.25;16.25
72307;PMS5003;60257;42.638;23.376;2022-08-19T00:31:57;18.25;17.25;12.75
72307;PMS5003;60257;42.638;23.376;2022-08-19T00:34:24;21.00;21.00;13.00
72307;PMS5003;60257;42.638;23.376;2022-08-19T00:36:53;22.75;22.75;16.00
72307;PMS5003;60257;42.638;23.376;2022-08-19T00:39:18;25.50;24.75;17.50
72307;PMS5003;60257;42.638;23.376;2022-08-19T00:41:47;27.25;24.75;17.50
72307;PMS5003;60257;42.638;23.376;2022-08-19T00:44:15;23.25;22.25;18.25
72307;PMS5003;60257;42.638;23.376;2022-08-19T00:46:45;19.50;17.50;13.00
72307;PMS5003;60257;42.638;23.376;2022-08-19T00:49:16;25.00;24.00;17.25
72307;PMS5003;60257;42.638;23.376;2022-08-19T00:51:47;24.00;22.75;15.50
72307;PMS5003;60257;42.638;23.376;2022-08-19T00:54:16;23.00;23.00;15.25
72307;PMS5003;60257;42.638;23.376;2022-08-19T00:56:46;24.50;23.00;17.25
72307;PMS5003;60257;42.638;23.376;2022-08-19T00:59:13;23.67;23.67;17.33
72307;PMS5003;60257;42.638;23.376;2022-08-19T01:01:41;25.50;23.25;16.25
72307;PMS5003;60257;42.638;23.376;2022-08-19T01:04:09;28.25;26.25;18.50
72307;PMS5003;60257;42.638;23.376;2022-08-19T01:06:38;24.50;23.75;17.00
72307;PMS5003;60257;42.638;23.376;2022-08-19T01:09:06;24.50;21.75;15.00
72307;PMS5003;60257;42.638;23.376;2022-08-19T01:11:33;12.75;11.50;10.50
72307;PMS5003;60257;42.638;23.376;2022-08-19T01:14:01;16.75;16.75;10.75
72307;PMS5003;60257;42.638;23.376;2022-08-19T01:16:28;23.75;22.50;17.25
72307;PMS5003;60257;42.638;23.376;2022-08-19T01:18:55;24.50;23.00;14.25
72307;PMS5003;60257;42.638;23.376;2022-08-19T01:23:54;21.25;20.25;13.50
72307;PMS5003;60257;42.638;23.376;2022-08-19T01:26:21;23.25;21.25;14.50
72307;PMS5003;60257;42.638;23.376;2022-08-19T01:28:49;19.25;19.25;11.75
72307;PMS5003;60257;42.638;23.376;2022-08-19T01:31:19;25.75;25.75;18.25
72307;PMS5003;60257;42.638;23.376;2022-08-19T01:33:47;25.33;24.67;18.33
72307;PMS5003;60257;42.638;23.376;2022-08-19T01:36:15;25.00;25.00;17.25
72307;PMS5003;60257;42.638;23.376;2022-08-19T01:38:47;26.25;26.25;17.25
72307;PMS5003;60257;42.638;23.376;2022-08-19T01:41:13;33.00;32.33;22.67
72307;PMS5003;60257;42.638;23.376;2022-08-19T01:43:39;24.33;24.33;18.33
72307;PMS5003;60257;42.638;23.376;2022-08-19T01:46:05;20.67;20.67;14.67
72307;PMS5003;60257;42.638;23.376;2022-08-19T01:48:37;25.67;24.00;18.00
72307;PMS5003;60257;42.638;23.376;2022-08-19T01:51:05;25.00;24.00;19.33
72307;PMS5003;60257;42.638;23.376;2022-08-19T01:53:31;19.50;19.50;13.25
72307;PMS5003;60257;42.638;23.376;2022-08-19T01:55:57;25.75;24.75;17.00
72307;PMS5003;60257;42.638;23.376;2022-08-19T01:58:24;25.50;25.50;18.25
72307;PMS5003;60257;42.638;23.376;2022-08-19T02:01:01;20.67;20.67;14.33
72307;PMS5003;60257;42.638;23.376;2022-08-19T02:03:27;29.33;27.33;19.33
72307;PMS5003;60257;42.638;23.376;2022-08-19T02:05:58;25.00;22.67;17.00
72307;PMS5003;60257;42.638;23.376;2022-08-19T02:08:26;21.00;21.00;15.00
72307;PMS5003;60257;42.638;23.376;2022-08-19T02:10:52;25.33;24.00;15.67
72307;PMS5003;60257;42.638;23.376;2022-08-19T02:13:18;29.67;25.67;20.33
72307;PMS5003;60257;42.638;23.376;2022-08-19T02:15:44;26.50;25.50;17.75
72307;PMS5003;60257;42.638;23.376;2022-08-19T02:18:10;26.25;25.50;18.50
72307;PMS5003;60257;42.638;23.376;2022-08-19T02:20:36;19.67;19.67;15.33
72307;PMS5003;60257;42.638;23.376;2022-08-19T02:23:03;25.67;24.67;18.00
72307;PMS5003;60257;42.638;23.376;2022-08-19T02:25:29;27.00;26.00;17.00
72307;PMS5003;60257;42.638;23.376;2022-08-19T02:27:55;25.67;25.67;18.33
72307;PMS5003;60257;42.638;23.376;2022-08-19T02:30:20;25.33;24.33;17.33
72307;PMS5003;60257;42.638;23.376;2022-08-19T02:32:47;25.67;25.00;20.00
72307;PMS5003;60257;42.638;23.376;2022-08-19T02:35:13;26.00;26.00;19.00
72307;PMS5003;60257;42.638;23.376;2022-08-19T02:37:39;25.33;25.33;16.33
72307;PMS5003;60257;42.638;23.376;2022-08-19T02:40:24;26.67;26.00;19.67
72307;PMS5003;60257;42.638;23.376;2022-08-19T02:42:49;27.00;24.33;17.33
72307;PMS5003;60257;42.638;23.376;2022-08-19T02:45:15;26.67;26.33;19.33
72307;PMS5003;60257;42.638;23.376;2022-08-19T02:47:41;33.33;30.00;20.33
72307;PMS5003;60257;42.638;23.376;2022-08-19T02:50:07;28.67;26.33;19.33
72307;PMS5003;60257;42.638;23.376;2022-08-19T02:52:33;32.00;30.67;19.00
72307;PMS5003;60257;42.638;23.376;2022-08-19T02:54:59;32.67;31.00;19.67
72307;PMS5003;60257;42.638;23.376;2022-08-19T02:57:25;24.67;24.67;16.00
72307;PMS5003;60257;42.638;23.376;2022-08-19T02:59:53;26.67;26.67;18.67
72307;PMS5003;60257;42.638;23.376;2022-08-19T03:02:19;21.33;21.00;14.33
72307;PMS5003;60257;42.638;23.376;2022-08-19T03:04:44;30.33;29.00;18.00
72307;PMS5003;60257;42.638;23.376;2022-08-19T03:07:14;25.67;22.33;15.67
72307;PMS5003;60257;42.638;23.376;2022-08-19T03:09:41;29.33;24.00;18.00
72307;PMS5003;60257;42.638;23.376;2022-08-19T03:12:10;28.33;28.00;19.00
72307;PMS5003;60257;42.638;23.376;2022-08-19T03:14:36;27.67;27.67;20.00
72307;PMS5003;60257;42.638;23.376;2022-08-19T03:17:02;28.00;26.00;17.00
72307;PMS5003;60257;42.638;23.376;2022-08-19T03:19:29;24.67;24.67;15.00
72307;PMS5003;60257;42.638;23.376;2022-08-19T03:21:56;28.67;28.67;18.00
72307;PMS5003;60257;42.638;23.376;2022-08-19T03:24:22;24.67;24.33;17.00
72307;PMS5003;60257;42.638;23.376;2022-08-19T03:26:49;23.67;23.67;16.00
72307;PMS5003;60257;42.638;23.376;2022-08-19T03:29:17;27.00;26.67;16.67
72307;PMS5003;60257;42.638;23.376;2022-08-19T03:31:44;26.00;25.67;17.67
72307;PMS5003;60257;42.638;23.376;2022-08-19T03:34:11;28.67;28.67;19.33
72307;PMS5003;60257;42.638;23.376;2022-08-19T03:36:43;28.33;28.33;18.67
72307;PMS5003;60257;42.638;23.376;2022-08-19T03:39:09;24.33;24.33;16.67
72307;PMS5003;60257;42.638;23.376;2022-08-19T03:41:39;29.00;29.00;19.33
72307;PMS5003;60257;42.638;23.376;2022-08-19T03:44:06;20.33;20.00;13.67
72307;PMS5003;60257;42.638;23.376;2022-08-19T03:46:33;23.67;23.67;19.00
72307;PMS5003;60257;42.638;23.376;2022-08-19T03:49:00;24.00;24.00;18.00
72307;PMS5003;60257;42.638;23.376;2022-08-19T03:51:33;31.00;29.67;20.67
72307;PMS5003;60257;42.638;23.376;2022-08-19T03:54:01;27.33;26.00;17.67
72307;PMS5003;60257;42.638;23.376;2022-08-19T03:56:28;23.33;23.33;17.00
72307;PMS5003;60257;42.638;23.376;2022-08-19T03:58:56;25.00;25.00;18.67
72307;PMS5003;60257;42.638;23.376;2022-08-19T04:01:23;24.67;24.67;17.33
72307;PMS5003;60257;42.638;23.376;2022-08-19T04:03:54;27.33;26.00;17.33
72307;PMS5003;60257;42.638;23.376;2022-08-19T04:06:25;30.33;28.33;20.67
72307;PMS5003;60257;42.638;23.376;2022-08-19T04:08:53;28.33;28.33;20.33
72307;PMS5003;60257;42.638;23.376;2022-08-19T04:11:21;32.33;29.67;21.00
72307;PMS5003;60257;42.638;23.376;2022-08-19T04:13:48;23.67;22.33;16.33
72307;PMS5003;60257;42.638;23.376;2022-08-19T04:16:16;28.67;25.33;17.67
72307;PMS5003;60257;42.638;23.376;2022-08-19T04:18:43;23.67;22.33;14.00
72307;PMS5003;60257;42.638;23.376;2022-08-19T04:21:14;27.67;26.33;19.00
72307;PMS5003;60257;42.638;23.376;2022-08-19T04:23:41;30.00;30.00;21.33
72307;PMS5003;60257;42.638;23.376;2022-08-19T04:26:07;30.67;30.67;19.67
72307;PMS5003;60257;42.638;23.376;2022-08-19T04:28:36;35.00;31.00;20.33
72307;PMS5003;60257;42.638;23.376;2022-08-19T04:31:02;27.33;27.33;19.67
72307;PMS5003;60257;42.638;23.376;2022-08-19T04:33:27;29.33;29.33;21.00
72307;PMS5003;60257;42.638;23.376;2022-08-19T04:35:53;29.00;27.67;20.33
72307;PMS5003;60257;42.638;23.376;2022-08-19T04:38:20;29.67;29.67;20.00
72307;PMS5003;60257;42.638;23.376;2022-08-19T04:40:48;30.33;29.00;19.33
72307;PMS5003;60257;42.638;23.376;2022-08-19T04:43:35;24.00;24.00;18.33
72307;PMS5003;60257;42.638;23.376;2022-08-19T04:46:09;28.33;28.33;20.67
72307;PMS5003;60257;42.638;23.376;2022-08-19T04:48:36;35.33;32.67;21.33
72307;PMS5003;60257;42.638;23.376;2022-08-19T04:51:05;28.00;27.33;19.67
72307;PMS5003;60257;42.638;23.376;2022-08-19T04:53:33;30.33;28.67;19.33
72307;PMS5003;60257;42.638;23.376;2022-08-19T04:56:03;27.67;27.67;18.00
72307;PMS5003;60257;42.638;23.376;2022-08-19T04:58:32;27.33;27.33;19.67
72307;PMS5003;60257;42.638;23.376;2022-08-19T05:00:59;28.67;27.33;17.33
72307;PMS5003;60257;42.638;23.376;2022-08-19T05:03:25;34.33;31.67;20.67
72307;PMS5003;60257;42.638;23.376;2022-08-19T05:05:51;36.00;32.00;21.33
72307;PMS5003;60257;42.638;23.376;2022-08-19T05:08:18;33.00;31.33;20.00
72307;PMS5003;60257;42.638;23.376;2022-08-19T05:10:49;28.67;28.67;20.67
72307;PMS5003;60257;42.638;23.376;2022-08-19T05:13:16;27.00;27.00;18.33
72307;PMS5003;60257;42.638;23.376;2022-08-19T05:15:44;27.00;26.67;21.00
72307;PMS5003;60257;42.638;23.376;2022-08-19T05:18:18;27.50;25.25;19.25
72307;PMS5003;60257;42.638;23.376;2022-08-19T05:21:06;30.00;30.00;21.00
72307;PMS5003;60257;42.638;23.376;2022-08-19T05:23:51;36.00;33.33;23.00
72307;PMS5003;60257;42.638;23.376;2022-08-19T05:26:17;31.33;29.00;18.00
72307;PMS5003;60257;42.638;23.376;2022-08-19T05:28:42;33.00;31.67;21.33
72307;PMS5003;60257;42.638;23.376;2022-08-19T05:31:08;36.33;34.33;24.00
72307;PMS5003;60257;42.638;23.376;2022-08-19T05:33:33;32.33;32.00;21.33
72307;PMS5003;60257;42.638;23.376;2022-08-19T05:36:00;28.33;28.33;19.67
72307;PMS5003;60257;42.638;23.376;2022-08-19T05:38:26;28.67;28.67;21.67
72307;PMS5003;60257;42.638;23.376;2022-08-19T05:40:52;29.75;29.00;21.00
72307;PMS5003;60257;42.638;23.376;2022-08-19T05:43:17;36.00;31.00;21.33
72307;PMS5003;60257;42.638;23.376;2022-08-19T05:45:43;27.25;26.00;18.25
72307;PMS5003;60257;42.638;23.376;2022-08-19T05:48:10;30.33;30.33;21.00
72307;PMS5003;60257;42.638;23.376;2022-08-19T05:50:37;31.33;31.00;21.33
72307;PMS5003;60257;42.638;23.376;2022-08-19T05:53:03;37.75;32.75;21.00
72307;PMS5003;60257;42.638;23.376;2022-08-19T05:55:30;30.67;28.33;19.00
72307;PMS5003;60257;42.638;23.376;2022-08-19T05:57:56;30.67;29.67;21.33
72307;PMS5003;60257;42.638;23.376;2022-08-19T06:00:22;31.00;29.50;21.25
72307;PMS5003;60257;42.638;23.376;2022-08-19T06:02:48;32.33;31.67;21.67
72307;PMS5003;60257;42.638;23.376;2022-08-19T06:05:13;35.33;33.33;23.33
72307;PMS5003;60257;42.638;23.376;2022-08-19T06:07:39;31.75;31.50;21.25
72307;PMS5003;60257;42.638;23.376;2022-08-19T06:10:06;29.50;27.50;21.50
72307;PMS5003;60257;42.638;23.376;2022-08-19T06:12:33;28.50;28.50;20.25
72307;PMS5003;60257;42.638;23.376;2022-08-19T06:15:10;30.50;30.50;20.50
72307;PMS5003;60257;42.638;23.376;2022-08-19T06:17:38;33.00;31.50;21.00
72307;PMS5003;60257;42.638;23.376;2022-08-19T06:20:05;28.25;25.75;16.50
72307;PMS5003;60257;42.638;23.376;2022-08-19T06:22:37;28.50;28.50;21.00
72307;PMS5003;60257;42.638;23.376;2022-08-19T06:25:04;25.50;25.50;18.00
72307;PMS5003;60257;42.638;23.376;2022-08-19T06:27:30;29.50;26.00;18.75
72307;PMS5003;60257;42.638;23.376;2022-08-19T06:29:57;26.50;26.50;18.50
72307;PMS5003;60257;42.638;23.376;2022-08-19T06:32:22;30.50;29.25;19.00
72307;PMS5003;60257;42.638;23.376;2022-08-19T06:34:47;29.50;28.50;19.75
72307;PMS5003;60257;42.638;23.376;2022-08-19T06:37:13;28.75;24.50;17.25
72307;PMS5003;60257;42.638;23.376;2022-08-19T06:39:40;25.00;22.75;16.75
72307;PMS5003;60257;42.638;23.376;2022-08-19T06:42:07;23.50;23.50;17.75
72307;PMS5003;60257;42.638;23.376;2022-08-19T06:44:37;29.50;28.50;19.75
72307;PMS5003;60257;42.638;23.376;2022-08-19T06:47:06;25.50;25.25;17.25
72307;PMS5003;60257;42.638;23.376;2022-08-19T06:49:33;23.25;22.75;15.25
72307;PMS5003;60257;42.638;23.376;2022-08-19T06:51:59;29.00;28.00;18.25
72307;PMS5003;60257;42.638;23.376;2022-08-19T06:54:26;27.50;26.50;19.75
72307;PMS5003;60257;42.638;23.376;2022-08-19T06:56:53;28.00;27.25;17.75
72307;PMS5003;60257;42.638;23.376;2022-08-19T06:59:20;25.75;25.00;17.75
72307;PMS5003;60257;42.638;23.376;2022-08-19T07:01:48;25.25;25.25;16.25
72307;PMS5003;60257;42.638;23.376;2022-08-19T07:04:17;25.00;25.00;17.25
72307;PMS5003;60257;42.638;23.376;2022-08-19T07:06:44;29.25;26.50;17.75
72307;PMS5003;60257;42.638;23.376;2022-08-19T07:09:11;26.25;24.75;18.25
72307;PMS5003;60257;42.638;23.376;2022-08-19T07:11:38;27.50;25.50;17.00
72307;PMS5003;60257;42.638;23.376;2022-08-19T07:14:03;27.75;25.50;20.00
72307;PMS5003;60257;42.638;23.376;2022-08-19T07:16:30;27.25;26.25;17.00
72307;PMS5003;60257;42.638;23.376;2022-08-19T07:18:55;29.25;29.25;19.00
72307;PMS5003;60257;42.638;23.376;2022-08-19T07:21:23;30.75;28.75;20.25
72307;PMS5003;60257;42.638;23.376;2022-08-19T07:23:52;26.50;26.25;18.50
72307;PMS5003;60257;42.638;23.376;2022-08-19T07:26:24;29.50;26.75;19.00
72307;PMS5003;60257;42.638;23.376;2022-08-19T07:28:52;19.00;19.00;15.25
72307;PMS5003;60257;42.638;23.376;2022-08-19T07:31:18;30.00;28.50;18.50
72307;PMS5003;60257;42.638;23.376;2022-08-19T07:33:47;26.50;26.50;19.75
72307;PMS5003;60257;42.638;23.376;2022-08-19T07:36:15;40.33;35.00;24.00
72307;PMS5003;60257;42.638;23.376;2022-08-19T07:38:43;30.00;29.00;18.75
72307;PMS5003;60257;42.638;23.376;2022-08-19T07:41:19;25.00;25.00;18.00
72307;PMS5003;60257;42.638;23.376;2022-08-19T07:43:47;23.00;23.00;15.50
72307;PMS5003;60257;42.638;23.376;2022-08-19T07:46:14;29.00;27.00;16.50
72307;PMS5003;60257;42.638;23.376;2022-08-19T07:48:42;26.50;26.50;19.25
72307;PMS5003;60257;42.638;23.376;2022-08-19T07:51:12;30.50;26.00;18.50
72307;PMS5003;60257;42.638;23.376;2022-08-19T07:53:38;26.75;26.00;18.75
72307;PMS5003;60257;42.638;23.376;2022-08-19T07:56:04;29.25;29.25;17.75
72307;PMS5003;60257;42.638;23.376;2022-08-19T07:58:34;23.50;23.50;17.50
72307;PMS5003;60257;42.638;23.376;2022-08-19T08:01:02;29.25;29.25;19.75
72307;PMS5003;60257;42.638;23.376;2022-08-19T08:03:29;28.00;26.75;18.75
72307;PMS5003;60257;42.638;23.376;2022-08-19T08:06:13;27.75;26.00;16.75
72307;PMS5003;60257;42.638;23.376;2022-08-19T08:08:59;26.25;24.25;17.25
72307;PMS5003;60257;42.638;23.376;2022-08-19T08:14:04;23.50;22.50;17.25
72307;PMS5003;60257;42.638;23.376;2022-08-19T08:16:33;20.75;20.75;17.00
72307;PMS5003;60257;42.638;23.376;2022-08-19T08:19:08;26.50;25.00;18.00
72307;PMS5003;60257;42.638;23.376;2022-08-19T08:21:33;21.75;20.50;14.75
72307;PMS5003;60257;42.638;23.376;2022-08-19T08:23:59;32.50;31.00;20.25
72307;PMS5003;60257;42.638;23.376;2022-08-19T08:26:25;33.00;30.00;20.25
72307;PMS5003;60257;42.638;23.376;2022-08-19T08:28:51;24.50;24.50;17.25
72307;PMS5003;60257;42.638;23.376;2022-08-19T08:31:17;27.25;25.75;17.50
72307;PMS5003;60257;42.638;23.376;2022-08-19T08:33:46;25.75;25.25;17.75
72307;PMS5003;60257;42.638;23.376;2022-08-19T08:36:12;29.75;28.75;20.25
72307;PMS5003;60257;42.638;23.376;2022-08-19T08:38:39;20.25;20.25;15.00
72307;PMS5003;60257;42.638;23.376;2022-08-19T08:41:12;31.75;30.00;20.25
72307;PMS5003;60257;42.638;23.376;2022-08-19T08:43:40;30.50;28.00;17.75
72307;PMS5003;60257;42.638;23.376;2022-08-19T08:46:10;28.00;28.00;18.75
72307;PMS5003;60257;42.638;23.376;2022-08-19T08:48:49;19.25;19.25;17.00
72307;PMS5003;60257;42.638;23.376;2022-08-19T08:51:28;25.25;25.25;18.50
72307;PMS5003;60257;42.638;23.376;2022-08-19T08:54:04;26.75;24.50;17.50
72307;PMS5003;60257;42.638;23.376;2022-08-19T08:56:32;22.50;22.50;17.00
72307;PMS5003;60257;42.638;23.376;2022-08-19T08:59:03;23.25;23.25;18.25
72307;PMS5003;60257;42.638;23.376;2022-08-19T09:01:33;21.50;21.00;14.25
72307;PMS5003;60257;42.638;23.376;2022-08-19T09:03:59;20.75;19.75;11.75
72307;PMS5003;60257;42.638;23.376;2022-08-19T09:14:50;18.75;16.00;10.75
72307;PMS5003;60257;42.638;23.376;2022-08-19T09:17:21;15.50;15.50;11.75
72307;PMS5003;60257;42.638;23.376;2022-08-19T09:22:56;21.75;20.50;14.25
72307;PMS5003;60257;42.638;23.376;2022-08-19T09:25:21;23.75;22.75;14.25
72307;PMS5003;60257;42.638;23.376;2022-08-19T09:27:48;23.00;23.00;16.25
72307;PMS5003;60257;42.638;23.376;2022-08-19T09:30:16;19.75;19.00;13.50
72307;PMS5003;60257;42.638;23.376;2022-08-19T09:32:45;14.00;14.00;10.00
72307;PMS5003;60257;42.638;23.376;2022-08-19T09:35:12;14.25;14.25;10.25
72307;PMS5003;60257;42.638;23.376;2022-08-19T09:37:39;18.50;16.25;11.50
72307;PMS5003;60257;42.638;23.376;2022-08-19T09:40:05;19.00;16.75;11.75
72307;PMS5003;60257;42.638;23.376;2022-08-19T09:42:32;12.50;12.50;8.25
72307;PMS5003;60257;42.638;23.376;2022-08-19T09:44:58;16.50;15.00;12.00
72307;PMS5003;60257;42.638;23.376;2022-08-19T09:47:24;16.75;13.75;10.25
72307;PMS5003;60257;42.638;23.376;2022-08-19T09:49:50;15.25;15.25;9.75
72307;PMS5003;60257;42.638;23.376;2022-08-19T09:52:15;15.00;15.00;11.00
72307;PMS5003;60257;42.638;23.376;2022-08-19T09:54:41;11.50;11.25;10.00
72307;PMS5003;60257;42.638;23.376;2022-08-19T09:57:07;17.00;17.00;12.00
72307;PMS5003;60257;42.638;23.376;2022-08-19T09:59:32;15.25;15.25;12.00
72307;PMS5003;60257;42.638;23.376;2022-08-19T10:01:58;23.50;22.50;16.25
72307;PMS5003;60257;42.638;23.376;2022-08-19T10:04:24;18.25;15.00;10.50
72307;PMS5003;60257;42.638;23.376;2022-08-19T10:07:10;15.75;15.00;10.25
72307;PMS5003;60257;42.638;23.376;2022-08-19T10:09:36;17.00;16.00;12.00
72307;PMS5003;60257;42.638;23.376;2022-08-19T10:12:03;19.25;19.00;13.25
72307;PMS5003;60257;42.638;23.376;2022-08-19T10:14:29;24.25;23.25;16.00
72307;PMS5003;60257;42.638;23.376;2022-08-19T10:16:56;18.00;18.00;13.00
72307;PMS5003;60257;42.638;23.376;2022-08-19T10:19:21;18.75;17.50;12.25
72307;PMS5003;60257;42.638;23.376;2022-08-19T10:21:47;15.75;15.50;11.50
72307;PMS5003;60257;42.638;23.376;2022-08-19T10:24:13;17.00;17.00;12.00
72307;PMS5003;60257;42.638;23.376;2022-08-19T10:26:39;16.00;16.00;12.25
72307;PMS5003;60257;42.638;23.376;2022-08-19T10:29:09;14.75;14.75;11.75
72307;PMS5003;60257;42.638;23.376;2022-08-19T10:31:37;15.00;15.00;11.75
72307;PMS5003;60257;42.638;23.376;2022-08-19T10:34:02;16.75;16.75;13.25
72307;PMS5003;60257;42.638;23.376;2022-08-19T10:36:34;17.25;15.25;10.50
72307;PMS5003;60257;42.638;23.376;2022-08-19T10:39:02;14.50;14.50;10.50
72307;PMS5003;60257;42.638;23.376;2022-08-19T10:41:32;21.50;20.50;13.00
72307;PMS5003;60257;42.638;23.376;2022-08-19T10:44:02;17.00;14.75;12.25
72307;PMS5003;60257;42.638;23.376;2022-08-19T10:46:31;17.00;17.00;11.00
72307;PMS5003;60257;42.638;23.376;2022-08-19T10:48:58;16.25;16.25;12.50
72307;PMS5003;60257;42.638;23.376;2022-08-19T10:51:25;16.00;15.75;11.25
72307;PMS5003;60257;42.638;23.376;2022-08-19T10:54:09;18.75;18.50;12.50
72307;PMS5003;60257;42.638;23.376;2022-08-19T10:56:35;17.00;17.00;11.75
72307;PMS5003;60257;42.638;23.376;2022-08-19T10:59:17;18.50;17.25;12.75
72307;PMS5003;60257;42.638;23.376;2022-08-19T11:01:44;17.25;17.25;13.00
72307;PMS5003;60257;42.638;23.376;2022-08-19T11:04:11;18.50;18.50;13.75
72307;PMS5003;60257;42.638;23.376;2022-08-19T11:06:41;18.00;18.00;13.00
72307;PMS5003;60257;42.638;23.376;2022-08-19T11:09:08;18.00;16.25;12.00
72307;PMS5003;60257;42.638;23.376;2022-08-19T11:11:36;15.50;15.50;10.00
72307;PMS5003;60257;42.638;23.376;2022-08-19T11:14:09;18.25;18.25;13.50
72307;PMS5003;60257;42.638;23.376;2022-08-19T11:16:39;14.00;14.00;11.00
72307;PMS5003;60257;42.638;23.376;2022-08-19T11:19:05;17.75;16.25;11.25
72307;PMS5003;60257;42.638;23.376;2022-08-19T11:21:37;17.50;17.00;10.50
72307;PMS5003;60257;42.638;23.376;2022-08-19T11:24:12;18.75;17.75;12.00
72307;PMS5003;60257;42.638;23.376;2022-08-19T11:26:40;18.00;17.50;12.00
72307;PMS5003;60257;42.638;23.376;2022-08-19T11:29:08;16.00;14.25;11.00
72307;PMS5003;60257;42.638;23.376;2022-08-19T11:31:36;18.00;18.00;12.75
72307;PMS5003;60257;42.638;23.376;2022-08-19T11:34:04;19.75;18.25;12.00
72307;PMS5003;60257;42.638;23.376;2022-08-19T11:36:32;18.75;18.25;12.25
72307;PMS5003;60257;42.638;23.376;2022-08-19T11:38:58;16.75;15.75;11.50
72307;PMS5003;60257;42.638;23.376;2022-08-19T11:41:25;19.00;18.75;13.00
72307;PMS5003;60257;42.638;23.376;2022-08-19T11:43:51;17.75;17.75;11.00
72307;PMS5003;60257;42.638;23.376;2022-08-19T11:46:21;20.50;20.50;15.25
72307;PMS5003;60257;42.638;23.376;2022-08-19T11:48:47;25.00;23.50;17.25
72307;PMS5003;60257;42.638;23.376;2022-08-19T11:51:16;18.00;18.00;13.25
72307;PMS5003;60257;42.638;23.376;2022-08-19T11:53:47;18.75;17.25;11.75
72307;PMS5003;60257;42.638;23.376;2022-08-19T11:56:13;17.25;17.25;12.50
72307;PMS5003;60257;42.638;23.376;2022-08-19T11:58:39;19.00;19.00;14.25
72307;PMS5003;60257;42.638;23.376;2022-08-19T12:01:14;17.25;17.25;13.25
72307;PMS5003;60257;42.638;23.376;2022-08-19T12:03:41;24.75;23.50;16.00
72307;PMS5003;60257;42.638;23.376;2022-08-19T12:06:08;17.25;16.75;12.75
72307;PMS5003;60257;42.638;23.376;2022-08-19T12:08:37;19.00;17.75;13.25
72307;PMS5003;60257;42.638;23.376;2022-08-19T12:11:03;15.25;15.25;12.25
72307;PMS5003;60257;42.638;23.376;2022-08-19T12:13:29;20.75;19.00;14.00
72307;PMS5003;60257;42.638;23.376;2022-08-19T12:15:56;21.00;19.75;14.00
72307;PMS5003;60257;42.638;23.376;2022-08-19T12:18:22;18.50;18.50;13.00
72307;PMS5003;60257;42.638;23.376;2022-08-19T12:20:50;20.50;20.00;14.00
72307;PMS5003;60257;42.638;23.376;2022-08-19T12:23:16;22.00;20.50;14.00
72307;PMS5003;60257;42.638;23.376;2022-08-19T12:25:45;18.25;18.25;13.50
72307;PMS5003;60257;42.638;23.376;2022-08-19T12:28:20;23.50;23.00;14.25
72307;PMS5003;60257;42.638;23.376;2022-08-19T12:30:47;17.75;17.75;13.00
72307;PMS5003;60257;42.638;23.376;2022-08-19T12:33:16;21.25;20.50;16.00
72307;PMS5003;60257;42.638;23.376;2022-08-19T12:35:45;18.50;18.50;14.00
72307;PMS5003;60257;42.638;23.376;2022-08-19T12:38:12;21.50;19.50;14.00
72307;PMS5003;60257;42.638;23.376;2022-08-19T12:40:39;15.50;15.00;10.25
72307;PMS5003;60257;42.638;23.376;2022-08-19T12:43:05;21.50;19.25;14.00
72307;PMS5003;60257;42.638;23.376;2022-08-19T12:45:34;22.25;21.25;15.25
72307;PMS5003;60257;42.638;23.376;2022-08-19T12:48:00;19.75;19.75;13.75
72307;PMS5003;60257;42.638;23.376;2022-08-19T12:50:25;20.75;19.75;13.25
72307;PMS5003;60257;42.638;23.376;2022-08-19T12:52:51;20.75;20.75;15.25
72307;PMS5003;60257;42.638;23.376;2022-08-19T12:55:17;18.50;18.50;13.00
72307;PMS5003;60257;42.638;23.376;2022-08-19T12:57:43;22.25;21.00;16.00
72307;PMS5003;60257;42.638;23.376;2022-08-19T13:00:11;20.00;20.00;13.00
72307;PMS5003;60257;42.638;23.376;2022-08-19T13:02:39;24.00;22.75;17.00
72307;PMS5003;60257;42.638;23.376;2022-08-19T13:05:07;22.00;21.75;15.00
72307;PMS5003;60257;42.638;23.376;2022-08-19T13:07:34;16.00;16.00;12.00
72307;PMS5003;60257;42.638;23.376;2022-08-19T13:10:00;20.25;20.25;13.75
72307;PMS5003;60257;42.638;23.376;2022-08-19T13:12:26;27.75;27.75;17.00
72307;PMS5003;60257;42.638;23.376;2022-08-19T13:14:52;23.50;23.50;17.25
72307;PMS5003;60257;42.638;23.376;2022-08-19T13:17:18;22.00;21.00;16.00
72307;PMS5003;60257;42.638;23.376;2022-08-19T13:19:58;18.50;18.50;13.00
72307;PMS5003;60257;42.638;23.376;2022-08-19T13:22:33;20.75;20.75;15.25
72307;PMS5003;60257;42.638;23.376;2022-08-19T13:25:15;21.00;20.00;13.25
72307;PMS5003;60257;42.638;23.376;2022-08-19T13:27:47;19.75;19.75;15.50
72307;PMS5003;60257;42.638;23.376;2022-08-19T13:33:50;19.25;19.00;14.25
72307;PMS5003;60257;42.638;23.376;2022-08-19T13:36:26;21.00;20.75;15.50
72307;PMS5003;60257;42.638;23.376;2022-08-19T13:38:56;11.50;11.50;6.00
72307;PMS5003;60257;42.638;23.376;2022-08-19T13:41:36;19.00;19.00;14.25
72307;PMS5003;60257;42.638;23.376;2022-08-19T13:44:10;18.00;18.00;14.00
72307;PMS5003;60257;42.638;23.376;2022-08-19T13:47:09;25.25;25.00;18.00
72307;PMS5003;60257;42.638;23.376;2022-08-19T13:49:42;25.25;24.75;17.00
72307;PMS5003;60257;42.638;23.376;2022-08-19T13:52:41;20.00;20.00;14.00
72307;PMS5003;60257;42.638;23.376;2022-08-19T13:55:38;18.50;17.75;12.50
72307;PMS5003;60257;42.638;23.376;2022-08-19T13:58:30;27.00;25.00;17.00
72307;PMS5003;60257;42.638;23.376;2022-08-19T14:01:17;20.00;20.00;13.00